Aviation Digital Data Service (ADDS)

Output produced by METARs form (0243 UTC 24 July 2017)
found at http://www.aviationweather.gov/adds/metars/
 
TAF SUCA 232330Z 2400/2424 14010KT 9999 FEW030 BKN080 TX17/2418Z TN11/2410Z 
     TEMPO 2402/2414 5000 RABR BKN015 OVC070 
     PROB30 
     TEMPO 2406/2412 TS FEW040CB
       
TAF SUDU 232330Z 2400/2424 14010KT 9999 FEW030 BKN080 TX22/2418Z TN11/2410Z 
     TEMPO 2408/2418 5000 RABR BKN015 OVC070
       
TAF SUMU 232330Z 2400/2424 14010KT 9999 FEW030 BKN080 TX17/2418Z TN11/2410Z 
     TEMPO 2402/2414 5000 RABR BKN015 OVC070 
     PROB30 
     TEMPO 2406/2412 TS FEW040CB
       
TAF SUAA 232330Z 2400/2424 14010KT 9999 FEW030 BKN080 TX17/2418Z TN11/2410Z 
     TEMPO 2402/2414 5000 RABR BKN015 OVC070 
     PROB30 
     TEMPO 2406/2412 TS FEW040CB
       
TAF SULS 232330Z 2400/2424 14010KT 9999 FEW030 BKN080 TX17/2418Z TN11/2410Z 
     TEMPO 2402/2414 5000 RABR BKN015 OVC070 
     PROB30 
     TEMPO 2406/2412 TS FEW040CB
       
TAF SURV 232330Z 2400/2424 03010KT CAVOK TX22/2418Z TN11/2410Z
       
TAF SUSO 232330Z 2400/2424 03010KT CAVOK TX22/2418Z TN11/2410Z